createdAt,value
2019-03-23T00:01:56.669Z,25.40
2019-03-23T00:04:26.838Z,25.63
2019-03-23T00:06:57.143Z,25.73
2019-03-23T00:09:27.473Z,25.53
2019-03-23T00:11:57.841Z,26.27
2019-03-23T00:14:28.045Z,25.20
2019-03-23T00:16:58.419Z,25.47
2019-03-23T00:19:28.786Z,26.37
2019-03-23T00:21:59.202Z,24.80
2019-03-23T00:24:29.442Z,26.43
2019-03-23T00:26:59.832Z,25.40
2019-03-23T00:29:30.105Z,27.50
2019-03-23T00:32:00.438Z,25.10
2019-03-23T00:34:31.049Z,27.10
2019-03-23T00:37:01.255Z,27.97
2019-03-23T00:39:31.547Z,27.43
2019-03-23T00:42:02.017Z,27.93
2019-03-23T00:44:32.309Z,28.37
2019-03-23T00:47:02.541Z,28.27
2019-03-23T00:49:32.886Z,28.60
2019-03-23T00:52:03.255Z,26.97
2019-03-23T00:54:33.581Z,28.03
2019-03-23T00:57:03.901Z,26.00
2019-03-23T00:59:34.261Z,25.13
2019-03-23T01:02:04.509Z,25.37
2019-03-23T01:04:34.723Z,26.33
2019-03-23T01:07:05.273Z,26.57
2019-03-23T01:09:35.613Z,27.40
2019-03-23T01:12:05.959Z,26.27
2019-03-23T01:14:36.179Z,27.53
2019-03-23T01:17:06.511Z,26.63
2019-03-23T01:19:36.837Z,25.20
2019-03-23T01:22:07.085Z,21.80
2019-03-23T01:24:37.283Z,22.07
2019-03-23T01:27:07.469Z,19.50
2019-03-23T01:29:37.811Z,19.90
2019-03-23T01:32:08.130Z,20.67
2019-03-23T01:34:38.392Z,20.07
2019-03-23T01:37:08.701Z,20.47
2019-03-23T01:39:38.923Z,18.97
2019-03-23T01:42:09.179Z,18.10
2019-03-23T01:44:39.560Z,17.13
2019-03-23T01:47:12.254Z,15.83
2019-03-23T01:49:42.529Z,17.73
2019-03-23T01:52:12.890Z,16.40
2019-03-23T01:54:43.269Z,16.47
2019-03-23T01:57:13.566Z,15.93
2019-03-23T01:59:43.934Z,16.27
2019-03-23T02:02:14.272Z,15.53
2019-03-23T02:04:44.542Z,16.87
2019-03-23T02:07:14.882Z,16.07
2019-03-23T02:09:45.190Z,15.83
2019-03-23T02:12:15.489Z,15.37
2019-03-23T02:14:45.806Z,14.70
2019-03-23T02:17:16.085Z,14.60
2019-03-23T02:19:46.310Z,14.53
2019-03-23T02:22:16.697Z,14.23
2019-03-23T02:24:46.905Z,15.73
2019-03-23T02:27:17.571Z,13.97
2019-03-23T02:29:47.913Z,14.70
2019-03-23T02:32:18.237Z,15.17
2019-03-23T02:34:48.573Z,14.37
2019-03-23T02:37:27.599Z,15.60
2019-03-23T02:39:50.736Z,13.37
2019-03-23T02:42:21.067Z,14.20
2019-03-23T02:44:51.377Z,13.70
2019-03-23T02:47:21.635Z,13.60
2019-03-23T02:49:51.952Z,14.50
2019-03-23T02:52:22.341Z,15.07
2019-03-23T02:54:52.659Z,13.83
2019-03-23T02:57:22.975Z,13.93
2019-03-23T02:59:53.338Z,13.87
2019-03-23T03:02:24.301Z,14.37
2019-03-23T03:04:54.510Z,14.90
2019-03-23T03:07:24.781Z,13.80
2019-03-23T03:09:55.043Z,13.97
2019-03-23T03:12:25.290Z,14.90
2019-03-23T03:14:55.578Z,15.20
2019-03-23T03:17:26.198Z,15.73
2019-03-23T03:19:56.461Z,15.07
2019-03-23T03:22:26.807Z,15.00
2019-03-23T03:24:57.215Z,14.67
2019-03-23T03:27:27.394Z,14.57
2019-03-23T03:29:57.774Z,14.27
2019-03-23T03:32:28.019Z,14.20
2019-03-23T03:34:58.305Z,14.17
2019-03-23T03:37:28.609Z,15.00
2019-03-23T03:39:58.852Z,13.87
2019-03-23T03:42:29.664Z,14.30
2019-03-23T03:45:00.023Z,13.43
2019-03-23T03:47:30.274Z,12.80
2019-03-23T03:50:00.551Z,13.50
2019-03-23T03:52:30.763Z,13.23
2019-03-23T03:55:01.130Z,13.23
2019-03-23T03:57:31.374Z,12.40
2019-03-23T04:00:01.768Z,13.63
2019-03-23T04:02:32.013Z,13.43
2019-03-23T04:05:02.298Z,14.00
2019-03-23T04:07:32.583Z,14.93
2019-03-23T04:10:02.878Z,14.57
2019-03-23T04:12:34.918Z,15.10
2019-03-23T04:15:05.766Z,15.67
2019-03-23T04:17:36.071Z,15.10
2019-03-23T04:20:06.865Z,15.33
2019-03-23T04:22:37.204Z,14.77
2019-03-23T04:25:07.972Z,14.50
2019-03-23T04:27:38.292Z,15.90
2019-03-23T04:30:08.742Z,15.67
2019-03-23T04:32:38.957Z,15.77
2019-03-23T04:35:09.359Z,15.50
2019-03-23T04:37:39.568Z,15.67
2019-03-23T04:40:11.078Z,14.03
2019-03-23T04:42:41.341Z,15.43
2019-03-23T04:45:11.793Z,14.73
2019-03-23T04:47:42.015Z,15.67
2019-03-23T04:50:14.784Z,14.90
2019-03-23T04:52:45.129Z,15.77
2019-03-23T04:55:15.439Z,15.57
2019-03-23T04:57:45.781Z,14.60
2019-03-23T05:00:16.912Z,16.27
2019-03-23T05:02:47.244Z,16.27
2019-03-23T05:05:17.531Z,14.93
2019-03-23T05:07:47.864Z,15.60
2019-03-23T05:10:18.097Z,16.20
2019-03-23T05:12:48.429Z,15.63
2019-03-23T05:15:18.754Z,16.53
2019-03-23T05:17:48.971Z,16.80
2019-03-23T05:20:30.493Z,15.87
2019-03-23T05:23:01.031Z,16.33
2019-03-23T05:25:31.785Z,17.73
2019-03-23T05:28:02.085Z,17.57
2019-03-23T05:30:32.439Z,17.17
2019-03-23T05:33:02.762Z,16.23
2019-03-23T05:35:33.093Z,15.90
2019-03-23T05:38:03.409Z,16.70
2019-03-23T05:40:33.728Z,17.60
2019-03-23T05:43:04.473Z,17.60
2019-03-23T05:45:34.863Z,17.33
2019-03-23T05:48:05.205Z,18.67
2019-03-23T05:50:35.505Z,17.83
2019-03-23T05:53:05.804Z,20.50
2019-03-23T05:55:36.005Z,20.77
2019-03-23T05:58:06.341Z,19.67
2019-03-23T06:00:36.628Z,20.77
2019-03-23T06:03:06.873Z,20.20
2019-03-23T06:05:37.232Z,20.93
2019-03-23T06:08:07.522Z,20.30
2019-03-23T06:10:37.844Z,18.50
2019-03-23T06:13:08.273Z,19.67
2019-03-23T06:15:38.600Z,18.73
2019-03-23T06:18:08.878Z,18.17
2019-03-23T06:20:39.065Z,19.07
2019-03-23T06:23:09.341Z,19.33
2019-03-23T06:25:39.610Z,20.67
2019-03-23T06:28:10.007Z,20.27
2019-03-23T06:30:40.426Z,21.60
2019-03-23T06:33:10.759Z,21.93
2019-03-23T06:35:41.042Z,23.67
2019-03-23T06:38:11.691Z,22.03
2019-03-23T06:40:41.998Z,23.07
2019-03-23T06:43:12.310Z,23.47
2019-03-23T06:45:42.617Z,24.70
2019-03-23T06:48:12.979Z,25.00
2019-03-23T06:50:43.322Z,26.67
2019-03-23T06:53:13.682Z,24.30
2019-03-23T06:55:44.038Z,24.30
2019-03-23T06:58:14.383Z,24.63
2019-03-23T07:00:44.658Z,26.23
2019-03-23T07:03:15.009Z,27.90
2019-03-23T07:05:45.290Z,26.37
2019-03-23T07:08:15.665Z,31.17
2019-03-23T07:10:45.890Z,28.70
2019-03-23T07:13:16.296Z,27.80
2019-03-23T07:15:46.638Z,28.27
2019-03-23T07:18:16.989Z,31.27
2019-03-23T07:20:47.205Z,29.33
2019-03-23T07:23:17.454Z,31.63
2019-03-23T07:25:47.701Z,30.83
2019-03-23T07:28:18.046Z,29.60
2019-03-23T07:30:48.346Z,31.73
2019-03-23T07:33:20.909Z,31.60
2019-03-23T07:35:51.453Z,32.40
2019-03-23T07:38:21.794Z,33.87
2019-03-23T07:40:52.019Z,34.07
2019-03-23T07:43:22.231Z,34.93
2019-03-23T07:45:52.578Z,33.93
2019-03-23T07:48:22.949Z,35.87
2019-03-23T07:50:53.238Z,35.17
2019-03-23T07:53:23.567Z,37.60
2019-03-23T07:55:53.930Z,35.47
2019-03-23T07:58:24.226Z,40.60
2019-03-23T08:00:54.537Z,39.10
2019-03-23T08:03:24.806Z,37.83
2019-03-23T08:05:55.201Z,38.50
2019-03-23T08:08:27.769Z,38.67
2019-03-23T08:10:58.166Z,40.30
2019-03-23T08:13:28.555Z,42.23
2019-03-23T08:15:58.918Z,40.57
2019-03-23T08:18:29.220Z,42.43
2019-03-23T08:20:59.622Z,45.17
2019-03-23T08:23:29.829Z,42.60
2019-03-23T08:26:00.033Z,41.43
2019-03-23T08:28:32.383Z,41.83
2019-03-23T08:31:02.285Z,43.77
2019-03-23T08:33:32.655Z,41.07
2019-03-23T08:36:02.833Z,43.97
2019-03-23T08:38:33.185Z,42.83
2019-03-23T08:41:03.585Z,41.13
2019-03-23T08:43:33.949Z,43.10
2019-03-23T08:46:04.290Z,42.07
2019-03-23T08:48:34.554Z,44.03
2019-03-23T08:51:04.751Z,42.50
2019-03-23T08:53:34.897Z,43.83
2019-03-23T08:56:05.133Z,41.97
2019-03-23T08:58:33.062Z,44.55
2019-03-23T09:01:03.462Z,41.28
2019-03-23T09:03:33.843Z,41.05
2019-03-23T09:06:04.234Z,40.78
2019-03-23T09:08:34.533Z,46.30
2019-03-23T09:11:04.734Z,40.67
2019-03-23T09:13:40.678Z,40.98
2019-03-23T09:16:07.006Z,42.43
2019-03-23T09:18:37.301Z,42.20
2019-03-23T09:21:07.567Z,42.62
2019-03-23T09:23:37.798Z,41.85
2019-03-23T09:26:08.013Z,40.15
2019-03-23T09:28:38.237Z,41.80
2019-03-23T09:31:08.393Z,40.28
2019-03-23T09:33:38.759Z,40.70
2019-03-23T09:36:09.014Z,43.70
2019-03-23T09:38:39.301Z,41.05
2019-03-23T09:41:09.641Z,40.70
2019-03-23T09:43:39.850Z,41.25
2019-03-23T09:46:10.165Z,38.65
2019-03-23T09:48:40.529Z,42.08
2019-03-23T09:51:10.825Z,40.92
2019-03-23T09:53:41.131Z,39.92
2019-03-23T09:56:11.402Z,40.67
2019-03-23T09:58:41.789Z,36.53
2019-03-23T10:01:12.171Z,38.83
2019-03-23T10:03:42.974Z,38.00
2019-03-23T10:06:13.602Z,40.05
2019-03-23T10:08:46.250Z,37.20
2019-03-23T10:11:15.881Z,40.00
2019-03-23T10:13:46.168Z,38.42
2019-03-23T10:16:16.483Z,34.95
2019-03-23T10:18:46.694Z,35.68
2019-03-23T10:21:16.910Z,38.95
2019-03-23T10:23:47.166Z,38.98
2019-03-23T10:26:17.514Z,37.30
2019-03-23T10:28:47.711Z,36.70
2019-03-23T10:31:17.902Z,34.45
2019-03-23T10:33:48.082Z,32.58
2019-03-23T10:36:18.430Z,32.30
2019-03-23T10:38:48.645Z,35.58
2019-03-23T10:41:18.885Z,29.48
2019-03-23T10:43:49.196Z,32.93
2019-03-23T10:46:19.830Z,33.02
2019-03-23T10:48:50.105Z,36.17
2019-03-23T10:51:20.355Z,34.95
2019-03-23T10:53:50.857Z,33.78
2019-03-23T10:56:21.110Z,33.63
2019-03-23T10:58:51.326Z,34.92
2019-03-23T11:01:21.574Z,33.55
2019-03-23T11:03:51.914Z,34.27
2019-03-23T11:06:22.209Z,34.80
2019-03-23T11:08:52.561Z,36.08
2019-03-23T11:11:22.850Z,33.20
2019-03-23T11:13:53.058Z,37.83
2019-03-23T11:16:23.293Z,35.98
2019-03-23T11:18:54.490Z,34.63
2019-03-23T11:21:25.108Z,34.85
2019-03-23T11:23:55.381Z,34.10
2019-03-23T11:26:25.728Z,32.88
2019-03-23T11:28:56.907Z,30.27
2019-03-23T11:31:27.205Z,31.02
2019-03-23T11:33:57.557Z,32.85
2019-03-23T11:36:27.725Z,32.25
2019-03-23T11:38:57.923Z,30.25
2019-03-23T11:41:28.111Z,28.92
2019-03-23T11:43:58.453Z,26.52
2019-03-23T11:46:28.674Z,27.35
2019-03-23T11:48:59.275Z,28.55
2019-03-23T11:51:29.549Z,29.50
2019-03-23T11:53:59.753Z,27.32
2019-03-23T11:56:30.425Z,26.37
2019-03-23T11:59:01.485Z,26.00
2019-03-23T12:01:31.825Z,25.35
2019-03-23T12:04:02.090Z,26.27
2019-03-23T12:06:32.795Z,26.93
2019-03-23T12:09:04.712Z,28.85
2019-03-23T12:11:35.078Z,27.00
2019-03-23T12:14:05.521Z,27.48
2019-03-23T12:16:36.090Z,27.10
2019-03-23T12:19:06.401Z,25.90
2019-03-23T12:21:36.743Z,25.85
2019-03-23T12:24:08.946Z,25.20
2019-03-23T12:26:39.198Z,24.85
2019-03-23T12:29:09.398Z,25.60
2019-03-23T12:31:39.741Z,24.43
2019-03-23T12:34:09.981Z,22.55
2019-03-23T12:36:40.165Z,23.60
2019-03-23T12:39:10.375Z,24.15
2019-03-23T12:41:41.085Z,24.12
2019-03-23T12:44:11.289Z,24.23
2019-03-23T12:46:48.153Z,25.15
2019-03-23T12:49:13.306Z,23.30
2019-03-23T12:51:43.681Z,23.57
2019-03-23T12:54:14.013Z,24.10
2019-03-23T12:56:44.249Z,21.23
2019-03-23T12:59:14.585Z,20.27
2019-03-23T13:01:46.386Z,20.32
2019-03-23T13:04:16.733Z,22.25
2019-03-23T13:06:47.045Z,20.25
2019-03-23T13:09:17.271Z,20.48
2019-03-23T13:11:47.476Z,21.45
2019-03-23T13:14:17.713Z,23.02
2019-03-23T13:16:47.992Z,21.35
2019-03-23T13:19:18.597Z,21.27
2019-03-23T13:21:48.847Z,21.05
2019-03-23T13:24:19.135Z,22.87
2019-03-23T13:26:49.324Z,22.90
2019-03-23T13:29:19.603Z,20.48
2019-03-23T13:31:49.817Z,22.93
2019-03-23T13:34:20.082Z,22.70
2019-03-23T13:36:50.385Z,21.10
2019-03-23T13:39:20.586Z,21.27
2019-03-23T13:41:51.546Z,20.05
2019-03-23T13:44:21.903Z,20.70
2019-03-23T13:46:52.597Z,21.73
2019-03-23T13:49:22.848Z,21.27
2019-03-23T13:51:53.075Z,21.65
2019-03-23T13:54:23.233Z,21.50
2019-03-23T13:56:53.573Z,21.62
2019-03-23T13:59:23.857Z,22.55
2019-03-23T14:01:54.241Z,21.27
2019-03-23T14:04:24.598Z,21.95
2019-03-23T14:06:54.959Z,19.17
2019-03-23T14:09:25.194Z,21.97
2019-03-23T14:11:55.542Z,22.20
2019-03-23T14:14:25.779Z,21.05
2019-03-23T14:16:56.081Z,22.87
2019-03-23T14:19:26.438Z,21.17
2019-03-23T14:21:56.765Z,21.70
2019-03-23T14:24:27.065Z,23.35
2019-03-23T14:26:57.386Z,21.35
2019-03-23T14:29:27.681Z,21.70
2019-03-23T14:31:57.845Z,22.05
2019-03-23T14:34:28.127Z,21.65
2019-03-23T14:36:58.374Z,20.85
2019-03-23T14:39:28.661Z,22.30
2019-03-23T14:42:04.749Z,21.80
2019-03-23T14:44:31.225Z,20.97
2019-03-23T14:47:01.461Z,20.57
2019-03-23T14:49:32.826Z,22.30
2019-03-23T14:52:03.202Z,21.35
2019-03-23T14:54:33.588Z,21.62
2019-03-23T14:57:03.834Z,21.77
2019-03-23T14:59:33.985Z,21.82
2019-03-23T15:02:04.246Z,21.97
2019-03-23T15:04:34.517Z,21.12
2019-03-23T15:07:04.865Z,19.90
2019-03-23T15:09:35.154Z,20.85
2019-03-23T15:12:14.555Z,21.50
2019-03-23T15:14:37.337Z,22.75
2019-03-23T15:17:07.672Z,21.75
2019-03-23T15:19:37.926Z,21.55
2019-03-23T15:22:08.233Z,22.40
2019-03-23T15:24:38.510Z,25.00
2019-03-23T15:27:11.245Z,24.02
2019-03-23T15:29:41.596Z,24.55
2019-03-23T15:32:11.785Z,22.22
2019-03-23T15:34:42.096Z,22.13
2019-03-23T15:37:12.306Z,23.12
2019-03-23T15:39:42.522Z,24.77
2019-03-23T15:42:12.755Z,23.10
2019-03-23T15:44:42.996Z,25.88
2019-03-23T15:47:13.209Z,26.48
2019-03-23T15:49:43.534Z,23.70
2019-03-23T15:52:13.820Z,25.62
2019-03-23T15:54:44.114Z,28.20
2019-03-23T15:57:14.449Z,25.50
2019-03-23T15:59:44.737Z,26.60
2019-03-23T16:02:16.242Z,25.88
2019-03-23T16:04:46.506Z,27.17
2019-03-23T16:07:16.807Z,25.72
2019-03-23T16:09:47.186Z,25.62
2019-03-23T16:12:17.533Z,25.95
2019-03-23T16:14:47.957Z,24.07
2019-03-23T16:17:18.201Z,24.75
2019-03-23T16:19:48.547Z,24.18
2019-03-23T16:22:18.862Z,24.43
2019-03-23T16:24:49.313Z,26.48
2019-03-23T16:27:19.624Z,24.02
2019-03-23T16:29:49.846Z,22.90
2019-03-23T16:32:20.185Z,23.20
2019-03-23T16:34:50.413Z,24.43
2019-03-23T16:37:20.732Z,24.40
2019-03-23T16:39:52.053Z,26.10
2019-03-23T16:42:22.466Z,25.92
2019-03-23T16:44:52.703Z,25.85
2019-03-23T16:47:22.999Z,25.43
2019-03-23T16:49:53.247Z,24.25
2019-03-23T16:52:23.496Z,24.75
2019-03-23T16:54:53.785Z,24.92
2019-03-23T16:57:24.097Z,22.20
2019-03-23T16:59:54.438Z,22.82
2019-03-23T17:02:24.834Z,21.45
2019-03-23T17:04:55.145Z,20.92
2019-03-23T17:07:25.437Z,22.22
2019-03-23T17:09:55.807Z,21.12
2019-03-23T17:12:26.134Z,22.85
2019-03-23T17:14:56.565Z,22.15
2019-03-23T17:17:26.929Z,21.55
2019-03-23T17:19:57.260Z,22.87
2019-03-23T17:22:27.443Z,23.12
2019-03-23T17:24:57.714Z,23.25
2019-03-23T17:27:28.050Z,22.85
2019-03-23T17:29:58.418Z,22.42
2019-03-23T17:32:28.785Z,21.12
2019-03-23T17:34:59.020Z,21.83
2019-03-23T17:37:29.228Z,22.82
2019-03-23T17:39:59.492Z,21.82
2019-03-23T17:42:29.873Z,20.85
2019-03-23T17:45:00.326Z,21.73
2019-03-23T17:47:30.555Z,22.33
2019-03-23T17:50:00.787Z,22.05
2019-03-23T17:52:31.317Z,22.37
2019-03-23T17:55:01.584Z,21.73
2019-03-23T17:57:31.885Z,21.73
2019-03-23T18:00:02.162Z,21.13
2019-03-23T18:02:32.497Z,20.65
2019-03-23T18:05:02.654Z,20.83
2019-03-23T18:07:33.031Z,22.00
2019-03-23T18:10:04.222Z,21.87
2019-03-23T18:12:34.526Z,20.90
2019-03-23T18:15:04.917Z,22.00
2019-03-23T18:17:35.407Z,21.73
2019-03-23T18:20:06.224Z,21.50
2019-03-23T18:22:36.583Z,21.03
2019-03-23T18:25:07.860Z,22.42
2019-03-23T18:27:40.198Z,24.17
2019-03-23T18:30:41.606Z,25.57
2019-03-23T18:33:12.173Z,25.80
2019-03-23T18:35:42.651Z,25.83
2019-03-23T18:38:12.961Z,24.97
2019-03-23T18:40:43.301Z,28.47
2019-03-23T18:43:13.591Z,28.87
2019-03-23T18:45:43.837Z,28.40
2019-03-23T18:48:14.101Z,27.70
2019-03-23T18:50:44.321Z,27.60
2019-03-23T18:53:14.725Z,27.15
2019-03-23T18:55:44.962Z,27.50
2019-03-23T18:58:15.394Z,28.60
2019-03-23T19:00:45.769Z,28.20
2019-03-23T19:03:16.125Z,29.10
2019-03-23T19:05:47.722Z,29.97
2019-03-23T19:08:17.990Z,33.10
2019-03-23T19:10:48.174Z,34.37
2019-03-23T19:13:18.462Z,38.57
2019-03-23T19:15:48.759Z,40.03
2019-03-23T19:18:19.124Z,33.53
2019-03-23T19:20:49.378Z,34.53
2019-03-23T19:23:19.737Z,33.40
2019-03-23T19:25:50.101Z,31.37
2019-03-23T19:28:20.446Z,35.13
2019-03-23T19:30:50.767Z,33.20
2019-03-23T19:33:21.113Z,31.53
2019-03-23T19:35:51.387Z,30.90
2019-03-23T19:38:21.590Z,30.93
2019-03-23T19:40:51.915Z,30.10
2019-03-23T19:43:22.610Z,34.27
2019-03-23T19:45:52.882Z,32.43
2019-03-23T19:48:23.257Z,31.07
2019-03-23T19:50:53.599Z,31.97
2019-03-23T19:53:23.949Z,30.47
2019-03-23T19:55:54.264Z,32.10
2019-03-23T19:58:24.616Z,30.20
2019-03-23T20:00:54.914Z,31.57
2019-03-23T20:03:25.294Z,30.27
2019-03-23T20:05:57.118Z,30.73
2019-03-23T20:08:27.522Z,31.83
2019-03-23T20:10:57.780Z,29.83
2019-03-23T20:13:27.987Z,30.47
2019-03-23T20:15:58.322Z,30.07
2019-03-23T20:18:28.710Z,28.83
2019-03-23T20:20:59.102Z,28.50
2019-03-23T20:23:29.371Z,29.60
2019-03-23T20:25:59.672Z,28.17
2019-03-23T20:28:29.929Z,30.33
2019-03-23T20:31:00.263Z,28.80
2019-03-23T20:33:30.497Z,32.23
2019-03-23T20:36:01.139Z,32.33
2019-03-23T20:38:33.278Z,30.53
2019-03-23T20:41:03.615Z,30.73
2019-03-23T20:43:33.975Z,29.47
2019-03-23T20:46:04.203Z,30.07
2019-03-23T20:48:36.514Z,30.53
2019-03-23T20:51:06.966Z,28.20
2019-03-23T20:53:37.295Z,27.50
2019-03-23T20:56:07.642Z,28.07
2019-03-23T20:58:37.901Z,28.83
2019-03-23T21:01:08.133Z,29.23
2019-03-23T21:03:38.354Z,28.60
2019-03-23T21:06:08.694Z,28.60
2019-03-23T21:08:39.068Z,27.63
2019-03-23T21:11:09.378Z,26.90
2019-03-23T21:13:39.655Z,24.50
2019-03-23T21:16:09.859Z,24.10
2019-03-23T21:18:42.393Z,24.67
2019-03-23T21:21:12.685Z,25.93
2019-03-23T21:23:43.010Z,23.40
2019-03-23T21:26:14.537Z,23.93
2019-03-23T21:28:44.950Z,23.13
2019-03-23T21:31:15.276Z,23.97
2019-03-23T21:33:45.627Z,23.20
2019-03-23T21:36:17.403Z,23.33
2019-03-23T21:38:47.718Z,23.83
2019-03-23T21:41:17.990Z,22.67
2019-03-23T21:43:48.320Z,23.03
2019-03-23T21:46:18.570Z,22.47
2019-03-23T21:48:51.510Z,22.70
2019-03-23T21:51:22.991Z,24.37
2019-03-23T21:53:53.405Z,23.73
2019-03-23T21:56:23.778Z,22.87
2019-03-23T21:58:54.098Z,24.20
2019-03-23T22:01:24.477Z,25.53
2019-03-23T22:03:54.734Z,25.43
2019-03-23T22:06:25.427Z,24.23
2019-03-23T22:08:55.973Z,23.20
2019-03-23T22:11:26.299Z,24.13
2019-03-23T22:13:56.589Z,23.63
2019-03-23T22:16:27.646Z,23.50
2019-03-23T22:18:59.899Z,23.30
2019-03-23T22:21:31.537Z,22.63
2019-03-23T22:24:02.176Z,22.20
2019-03-23T22:26:32.469Z,21.90
2019-03-23T22:29:02.678Z,21.37
2019-03-23T22:31:33.298Z,21.23
2019-03-23T22:34:03.662Z,23.37
2019-03-23T22:36:35.649Z,22.80
2019-03-23T22:39:07.543Z,22.33
2019-03-23T22:41:37.910Z,22.53
2019-03-23T22:44:08.238Z,23.77
2019-03-23T22:46:38.476Z,24.10
2019-03-23T22:49:08.774Z,23.63
2019-03-23T22:51:39.101Z,24.23
2019-03-23T22:54:09.511Z,24.73
2019-03-23T22:56:39.878Z,21.17
2019-03-23T22:59:10.118Z,23.87
2019-03-23T23:01:41.727Z,21.83
2019-03-23T23:04:12.310Z,21.67
2019-03-23T23:06:43.590Z,21.57
2019-03-23T23:09:13.961Z,21.83
2019-03-23T23:11:44.330Z,22.03
2019-03-23T23:14:15.469Z,23.60
2019-03-23T23:16:47.319Z,22.30
2019-03-23T23:19:17.716Z,23.40
2019-03-23T23:21:47.952Z,20.73
2019-03-23T23:24:18.245Z,21.37
2019-03-23T23:26:48.474Z,20.07
2019-03-23T23:29:18.844Z,18.80
2019-03-23T23:31:50.550Z,19.33
2019-03-23T23:34:24.507Z,17.67
2019-03-23T23:36:54.874Z,18.83
2019-03-23T23:39:29.282Z,18.37
2019-03-23T23:41:59.661Z,18.20
2019-03-23T23:44:29.962Z,18.30
2019-03-23T23:47:00.323Z,18.43
2019-03-23T23:49:30.706Z,17.40
2019-03-23T23:52:01.033Z,17.87
2019-03-23T23:54:32.816Z,17.73
2019-03-23T23:57:03.081Z,16.47
2019-03-23T23:59:33.333Z,16.73
